sensor_id;sensor_type;location;lat;lon;timestamp;P1;durP1;ratioP1;P2;durP2;ratioP2
42018;SDS011;27703;51.980;5.848;2022-11-20T00:02:00;8.32;;;4.88;;
42018;SDS011;27703;51.980;5.848;2022-11-20T00:04:26;12.18;;;6.50;;
42018;SDS011;27703;51.980;5.848;2022-11-20T00:06:51;13.77;;;7.47;;
42018;SDS011;27703;51.980;5.848;2022-11-20T00:09:17;14.38;;;7.93;;
42018;SDS011;27703;51.980;5.848;2022-11-20T00:11:42;16.75;;;7.90;;
42018;SDS011;27703;51.980;5.848;2022-11-20T00:14:08;15.10;;;8.48;;
42018;SDS011;27703;51.980;5.848;2022-11-20T00:16:34;12.23;;;7.22;;
42018;SDS011;27703;51.980;5.848;2022-11-20T00:19:00;11.55;;;6.68;;
42018;SDS011;27703;51.980;5.848;2022-11-20T00:21:26;13.90;;;6.70;;
42018;SDS011;27703;51.980;5.848;2022-11-20T00:23:54;9.65;;;5.75;;
42018;SDS011;27703;51.980;5.848;2022-11-20T00:26:20;10.63;;;5.78;;
42018;SDS011;27703;51.980;5.848;2022-11-20T00:28:51;10.77;;;5.70;;
42018;SDS011;27703;51.980;5.848;2022-11-20T00:31:26;9.25;;;5.10;;
42018;SDS011;27703;51.980;5.848;2022-11-20T00:33:52;9.93;;;5.53;;
42018;SDS011;27703;51.980;5.848;2022-11-20T00:36:19;11.38;;;6.07;;
42018;SDS011;27703;51.980;5.848;2022-11-20T00:38:46;12.20;;;6.70;;
42018;SDS011;27703;51.980;5.848;2022-11-20T00:41:15;10.35;;;6.00;;
42018;SDS011;27703;51.980;5.848;2022-11-20T00:43:41;12.70;;;6.70;;
42018;SDS011;27703;51.980;5.848;2022-11-20T00:46:08;12.20;;;6.05;;
42018;SDS011;27703;51.980;5.848;2022-11-20T00:48:41;10.30;;;5.35;;
42018;SDS011;27703;51.980;5.848;2022-11-20T00:51:07;11.00;;;6.53;;
42018;SDS011;27703;51.980;5.848;2022-11-20T00:53:33;9.15;;;5.68;;
42018;SDS011;27703;51.980;5.848;2022-11-20T00:56:00;11.60;;;5.55;;
42018;SDS011;27703;51.980;5.848;2022-11-20T00:58:30;13.15;;;6.18;;
42018;SDS011;27703;51.980;5.848;2022-11-20T01:01:01;10.10;;;5.32;;
42018;SDS011;27703;51.980;5.848;2022-11-20T01:03:32;9.88;;;5.30;;
42018;SDS011;27703;51.980;5.848;2022-11-20T01:06:02;8.55;;;5.15;;
42018;SDS011;27703;51.980;5.848;2022-11-20T01:08:30;11.32;;;5.57;;
42018;SDS011;27703;51.980;5.848;2022-11-20T01:11:00;11.65;;;6.57;;
42018;SDS011;27703;51.980;5.848;2022-11-20T01:13:31;9.40;;;5.47;;
42018;SDS011;27703;51.980;5.848;2022-11-20T01:16:12;10.95;;;5.60;;
42018;SDS011;27703;51.980;5.848;2022-11-20T01:18:41;9.32;;;5.75;;
42018;SDS011;27703;51.980;5.848;2022-11-20T01:21:12;7.68;;;5.03;;
42018;SDS011;27703;51.980;5.848;2022-11-20T01:23:42;10.35;;;5.25;;
42018;SDS011;27703;51.980;5.848;2022-11-20T01:26:10;8.68;;;4.97;;
42018;SDS011;27703;51.980;5.848;2022-11-20T01:28:40;8.80;;;4.65;;
42018;SDS011;27703;51.980;5.848;2022-11-20T01:31:11;10.43;;;6.05;;
42018;SDS011;27703;51.980;5.848;2022-11-20T01:33:45;7.35;;;4.68;;
42018;SDS011;27703;51.980;5.848;2022-11-20T01:36:12;8.88;;;4.70;;
42018;SDS011;27703;51.980;5.848;2022-11-20T01:38:38;9.90;;;5.32;;
42018;SDS011;27703;51.980;5.848;2022-11-20T01:41:05;11.80;;;5.65;;
42018;SDS011;27703;51.980;5.848;2022-11-20T01:43:31;9.43;;;5.65;;
42018;SDS011;27703;51.980;5.848;2022-11-20T01:46:17;9.23;;;5.03;;
42018;SDS011;27703;51.980;5.848;2022-11-20T01:49:04;9.60;;;5.10;;
42018;SDS011;27703;51.980;5.848;2022-11-20T01:51:50;7.50;;;4.38;;
42018;SDS011;27703;51.980;5.848;2022-11-20T01:54:26;7.60;;;3.90;;
42018;SDS011;27703;51.980;5.848;2022-11-20T01:56:59;7.88;;;4.13;;
42018;SDS011;27703;51.980;5.848;2022-11-20T01:59:26;12.35;;;6.07;;
42018;SDS011;27703;51.980;5.848;2022-11-20T02:01:53;9.27;;;5.28;;
42018;SDS011;27703;51.980;5.848;2022-11-20T02:04:19;6.30;;;3.50;;
42018;SDS011;27703;51.980;5.848;2022-11-20T02:06:46;10.15;;;5.53;;
42018;SDS011;27703;51.980;5.848;2022-11-20T02:09:16;7.35;;;4.57;;
42018;SDS011;27703;51.980;5.848;2022-11-20T02:11:42;9.07;;;5.43;;
42018;SDS011;27703;51.980;5.848;2022-11-20T02:14:07;12.85;;;5.75;;
42018;SDS011;27703;51.980;5.848;2022-11-20T02:16:39;10.82;;;6.10;;
42018;SDS011;27703;51.980;5.848;2022-11-20T02:19:13;10.35;;;6.50;;
42018;SDS011;27703;51.980;5.848;2022-11-20T02:24:25;8.48;;;5.10;;
42018;SDS011;27703;51.980;5.848;2022-11-20T02:26:53;11.40;;;4.93;;
42018;SDS011;27703;51.980;5.848;2022-11-20T02:29:25;9.23;;;5.00;;
42018;SDS011;27703;51.980;5.848;2022-11-20T02:32:17;8.93;;;5.20;;
42018;SDS011;27703;51.980;5.848;2022-11-20T02:34:53;8.65;;;4.18;;
42018;SDS011;27703;51.980;5.848;2022-11-20T02:37:19;10.85;;;3.92;;
42018;SDS011;27703;51.980;5.848;2022-11-20T02:39:46;14.00;;;5.60;;
42018;SDS011;27703;51.980;5.848;2022-11-20T02:42:14;8.82;;;4.45;;
42018;SDS011;27703;51.980;5.848;2022-11-20T02:44:39;8.48;;;4.55;;
42018;SDS011;27703;51.980;5.848;2022-11-20T02:47:05;9.73;;;4.20;;
42018;SDS011;27703;51.980;5.848;2022-11-20T02:49:31;8.63;;;4.65;;
42018;SDS011;27703;51.980;5.848;2022-11-20T02:51:56;8.77;;;5.22;;
42018;SDS011;27703;51.980;5.848;2022-11-20T02:54:22;8.70;;;5.07;;
42018;SDS011;27703;51.980;5.848;2022-11-20T02:56:48;10.20;;;5.28;;
42018;SDS011;27703;51.980;5.848;2022-11-20T02:59:14;9.63;;;5.30;;
42018;SDS011;27703;51.980;5.848;2022-11-20T03:01:39;11.90;;;5.55;;
42018;SDS011;27703;51.980;5.848;2022-11-20T03:04:05;8.02;;;5.25;;
42018;SDS011;27703;51.980;5.848;2022-11-20T03:06:30;11.27;;;6.22;;
42018;SDS011;27703;51.980;5.848;2022-11-20T03:08:56;11.82;;;6.60;;
42018;SDS011;27703;51.980;5.848;2022-11-20T03:11:21;11.52;;;5.80;;
42018;SDS011;27703;51.980;5.848;2022-11-20T03:13:47;10.10;;;4.90;;
42018;SDS011;27703;51.980;5.848;2022-11-20T03:16:14;10.82;;;6.22;;
42018;SDS011;27703;51.980;5.848;2022-11-20T03:18:44;9.35;;;5.18;;
42018;SDS011;27703;51.980;5.848;2022-11-20T03:21:10;9.63;;;5.70;;
42018;SDS011;27703;51.980;5.848;2022-11-20T03:23:37;9.45;;;5.05;;
42018;SDS011;27703;51.980;5.848;2022-11-20T03:26:07;10.10;;;6.15;;
42018;SDS011;27703;51.980;5.848;2022-11-20T03:28:34;10.27;;;5.75;;
42018;SDS011;27703;51.980;5.848;2022-11-20T03:31:07;8.77;;;4.68;;
42018;SDS011;27703;51.980;5.848;2022-11-20T03:33:38;10.68;;;6.03;;
42018;SDS011;27703;51.980;5.848;2022-11-20T03:36:05;9.07;;;4.80;;
42018;SDS011;27703;51.980;5.848;2022-11-20T03:38:32;10.98;;;5.22;;
42018;SDS011;27703;51.980;5.848;2022-11-20T03:40:59;8.07;;;4.60;;
42018;SDS011;27703;51.980;5.848;2022-11-20T03:43:29;9.73;;;4.60;;
42018;SDS011;27703;51.980;5.848;2022-11-20T03:45:55;7.20;;;3.53;;
42018;SDS011;27703;51.980;5.848;2022-11-20T03:48:21;12.23;;;5.90;;
42018;SDS011;27703;51.980;5.848;2022-11-20T03:50:46;8.15;;;5.07;;
42018;SDS011;27703;51.980;5.848;2022-11-20T03:53:13;8.80;;;5.15;;
42018;SDS011;27703;51.980;5.848;2022-11-20T03:55:39;8.20;;;4.88;;
42018;SDS011;27703;51.980;5.848;2022-11-20T03:58:04;7.68;;;4.82;;
42018;SDS011;27703;51.980;5.848;2022-11-20T04:00:30;10.98;;;5.18;;
42018;SDS011;27703;51.980;5.848;2022-11-20T04:02:59;9.55;;;5.10;;
42018;SDS011;27703;51.980;5.848;2022-11-20T04:05:25;7.32;;;4.40;;
42018;SDS011;27703;51.980;5.848;2022-11-20T04:07:51;10.60;;;5.95;;
42018;SDS011;27703;51.980;5.848;2022-11-20T04:10:16;11.30;;;5.05;;
42018;SDS011;27703;51.980;5.848;2022-11-20T04:12:42;11.50;;;5.55;;
42018;SDS011;27703;51.980;5.848;2022-11-20T04:15:07;9.68;;;5.68;;
42018;SDS011;27703;51.980;5.848;2022-11-20T04:17:33;9.30;;;5.82;;
42018;SDS011;27703;51.980;5.848;2022-11-20T04:19:59;8.15;;;4.72;;
42018;SDS011;27703;51.980;5.848;2022-11-20T04:22:25;8.95;;;4.50;;
42018;SDS011;27703;51.980;5.848;2022-11-20T04:24:50;7.72;;;4.85;;
42018;SDS011;27703;51.980;5.848;2022-11-20T04:27:16;8.27;;;5.60;;
42018;SDS011;27703;51.980;5.848;2022-11-20T04:29:41;8.73;;;5.30;;
42018;SDS011;27703;51.980;5.848;2022-11-20T04:32:07;9.80;;;5.47;;
42018;SDS011;27703;51.980;5.848;2022-11-20T04:34:32;10.85;;;5.25;;
42018;SDS011;27703;51.980;5.848;2022-11-20T04:36:58;7.43;;;4.30;;
42018;SDS011;27703;51.980;5.848;2022-11-20T04:39:23;10.68;;;5.80;;
42018;SDS011;27703;51.980;5.848;2022-11-20T04:41:49;12.18;;;6.15;;
42018;SDS011;27703;51.980;5.848;2022-11-20T04:44:35;11.23;;;6.28;;
42018;SDS011;27703;51.980;5.848;2022-11-20T04:47:00;10.07;;;5.95;;
42018;SDS011;27703;51.980;5.848;2022-11-20T04:49:26;8.68;;;4.78;;
42018;SDS011;27703;51.980;5.848;2022-11-20T04:51:54;8.30;;;5.00;;
42018;SDS011;27703;51.980;5.848;2022-11-20T04:54:20;10.00;;;5.57;;
42018;SDS011;27703;51.980;5.848;2022-11-20T04:56:47;7.68;;;4.55;;
42018;SDS011;27703;51.980;5.848;2022-11-20T04:59:13;9.00;;;5.10;;
42018;SDS011;27703;51.980;5.848;2022-11-20T05:01:39;7.63;;;4.68;;
42018;SDS011;27703;51.980;5.848;2022-11-20T05:04:04;11.10;;;4.70;;
42018;SDS011;27703;51.980;5.848;2022-11-20T05:06:30;8.80;;;5.10;;
42018;SDS011;27703;51.980;5.848;2022-11-20T05:08:56;9.30;;;5.78;;
42018;SDS011;27703;51.980;5.848;2022-11-20T05:11:22;10.63;;;5.93;;
42018;SDS011;27703;51.980;5.848;2022-11-20T05:13:49;7.95;;;4.72;;
42018;SDS011;27703;51.980;5.848;2022-11-20T05:16:16;11.27;;;5.93;;
42018;SDS011;27703;51.980;5.848;2022-11-20T05:18:44;9.93;;;5.93;;
42018;SDS011;27703;51.980;5.848;2022-11-20T05:21:10;11.15;;;6.00;;
42018;SDS011;27703;51.980;5.848;2022-11-20T05:23:36;10.88;;;5.72;;
42018;SDS011;27703;51.980;5.848;2022-11-20T05:26:03;9.05;;;5.40;;
42018;SDS011;27703;51.980;5.848;2022-11-20T05:28:29;10.05;;;5.93;;
42018;SDS011;27703;51.980;5.848;2022-11-20T05:30:55;12.52;;;6.10;;
42018;SDS011;27703;51.980;5.848;2022-11-20T05:33:28;10.50;;;5.13;;
42018;SDS011;27703;51.980;5.848;2022-11-20T05:35:57;16.58;;;7.28;;
42018;SDS011;27703;51.980;5.848;2022-11-20T05:38:23;15.20;;;6.85;;
42018;SDS011;27703;51.980;5.848;2022-11-20T05:40:48;13.48;;;7.28;;
42018;SDS011;27703;51.980;5.848;2022-11-20T05:43:14;9.27;;;6.10;;
42018;SDS011;27703;51.980;5.848;2022-11-20T05:45:39;10.70;;;6.13;;
42018;SDS011;27703;51.980;5.848;2022-11-20T05:48:05;11.52;;;6.50;;
42018;SDS011;27703;51.980;5.848;2022-11-20T05:50:30;10.40;;;6.18;;
42018;SDS011;27703;51.980;5.848;2022-11-20T05:52:59;12.23;;;5.88;;
42018;SDS011;27703;51.980;5.848;2022-11-20T05:55:25;11.30;;;5.75;;
42018;SDS011;27703;51.980;5.848;2022-11-20T05:57:54;10.75;;;6.15;;
42018;SDS011;27703;51.980;5.848;2022-11-20T06:00:20;8.70;;;4.97;;
42018;SDS011;27703;51.980;5.848;2022-11-20T06:02:45;9.80;;;6.07;;
42018;SDS011;27703;51.980;5.848;2022-11-20T06:05:11;10.90;;;6.85;;
42018;SDS011;27703;51.980;5.848;2022-11-20T06:07:36;9.63;;;6.60;;
42018;SDS011;27703;51.980;5.848;2022-11-20T06:10:02;14.73;;;7.43;;
42018;SDS011;27703;51.980;5.848;2022-11-20T06:12:28;11.88;;;7.05;;
42018;SDS011;27703;51.980;5.848;2022-11-20T06:14:55;11.35;;;5.82;;
42018;SDS011;27703;51.980;5.848;2022-11-20T06:17:21;9.82;;;5.60;;
42018;SDS011;27703;51.980;5.848;2022-11-20T06:19:46;13.00;;;6.85;;
42018;SDS011;27703;51.980;5.848;2022-11-20T06:22:12;11.32;;;6.00;;
42018;SDS011;27703;51.980;5.848;2022-11-20T06:24:37;10.95;;;5.63;;
42018;SDS011;27703;51.980;5.848;2022-11-20T06:27:03;10.02;;;5.28;;
42018;SDS011;27703;51.980;5.848;2022-11-20T06:29:28;9.27;;;5.55;;
42018;SDS011;27703;51.980;5.848;2022-11-20T06:31:54;10.57;;;5.82;;
42018;SDS011;27703;51.980;5.848;2022-11-20T06:34:19;11.25;;;6.88;;
42018;SDS011;27703;51.980;5.848;2022-11-20T06:36:45;14.18;;;7.57;;
42018;SDS011;27703;51.980;5.848;2022-11-20T06:39:10;13.15;;;7.13;;
42018;SDS011;27703;51.980;5.848;2022-11-20T06:41:36;10.50;;;5.97;;
42018;SDS011;27703;51.980;5.848;2022-11-20T06:44:03;12.65;;;7.55;;
42018;SDS011;27703;51.980;5.848;2022-11-20T06:46:29;12.68;;;7.10;;
42018;SDS011;27703;51.980;5.848;2022-11-20T06:48:54;14.48;;;8.45;;
42018;SDS011;27703;51.980;5.848;2022-11-20T06:51:20;13.27;;;8.30;;
42018;SDS011;27703;51.980;5.848;2022-11-20T06:53:46;13.25;;;7.28;;
42018;SDS011;27703;51.980;5.848;2022-11-20T06:56:12;15.80;;;8.00;;
42018;SDS011;27703;51.980;5.848;2022-11-20T06:58:37;13.23;;;8.63;;
42018;SDS011;27703;51.980;5.848;2022-11-20T07:01:04;14.45;;;8.18;;
42018;SDS011;27703;51.980;5.848;2022-11-20T07:03:38;12.55;;;7.70;;
42018;SDS011;27703;51.980;5.848;2022-11-20T07:06:03;14.05;;;7.88;;
42018;SDS011;27703;51.980;5.848;2022-11-20T07:08:29;13.07;;;8.13;;
42018;SDS011;27703;51.980;5.848;2022-11-20T07:11:03;14.68;;;8.60;;
42018;SDS011;27703;51.980;5.848;2022-11-20T07:13:30;15.05;;;9.40;;
42018;SDS011;27703;51.980;5.848;2022-11-20T07:15:59;12.98;;;7.88;;
42018;SDS011;27703;51.980;5.848;2022-11-20T07:18:29;15.20;;;9.52;;
42018;SDS011;27703;51.980;5.848;2022-11-20T07:20:55;13.15;;;8.43;;
42018;SDS011;27703;51.980;5.848;2022-11-20T07:23:20;14.57;;;7.85;;
42018;SDS011;27703;51.980;5.848;2022-11-20T07:25:46;13.98;;;9.23;;
42018;SDS011;27703;51.980;5.848;2022-11-20T07:28:11;16.75;;;9.48;;
42018;SDS011;27703;51.980;5.848;2022-11-20T07:30:38;16.52;;;10.10;;
42018;SDS011;27703;51.980;5.848;2022-11-20T07:33:04;16.00;;;9.15;;
42018;SDS011;27703;51.980;5.848;2022-11-20T07:35:29;16.08;;;9.32;;
42018;SDS011;27703;51.980;5.848;2022-11-20T07:37:55;17.63;;;10.68;;
42018;SDS011;27703;51.980;5.848;2022-11-20T07:40:20;16.38;;;9.27;;
42018;SDS011;27703;51.980;5.848;2022-11-20T07:42:52;14.43;;;9.02;;
42018;SDS011;27703;51.980;5.848;2022-11-20T07:45:20;19.52;;;9.65;;
42018;SDS011;27703;51.980;5.848;2022-11-20T07:47:47;16.65;;;10.35;;
42018;SDS011;27703;51.980;5.848;2022-11-20T07:50:13;14.00;;;8.80;;
42018;SDS011;27703;51.980;5.848;2022-11-20T07:52:38;15.77;;;9.77;;
42018;SDS011;27703;51.980;5.848;2022-11-20T07:55:04;15.63;;;9.25;;
42018;SDS011;27703;51.980;5.848;2022-11-20T07:57:31;17.27;;;10.63;;
42018;SDS011;27703;51.980;5.848;2022-11-20T07:59:56;14.40;;;10.38;;
42018;SDS011;27703;51.980;5.848;2022-11-20T08:02:23;16.38;;;10.18;;
42018;SDS011;27703;51.980;5.848;2022-11-20T08:04:48;12.50;;;8.15;;
42018;SDS011;27703;51.980;5.848;2022-11-20T08:07:14;13.80;;;9.15;;
42018;SDS011;27703;51.980;5.848;2022-11-20T08:09:39;14.07;;;8.90;;
42018;SDS011;27703;51.980;5.848;2022-11-20T08:12:05;16.33;;;9.15;;
42018;SDS011;27703;51.980;5.848;2022-11-20T08:14:49;14.55;;;7.97;;
42018;SDS011;27703;51.980;5.848;2022-11-20T08:17:15;14.80;;;8.70;;
42018;SDS011;27703;51.980;5.848;2022-11-20T08:19:40;14.85;;;8.82;;
42018;SDS011;27703;51.980;5.848;2022-11-20T08:22:06;12.00;;;7.90;;
42018;SDS011;27703;51.980;5.848;2022-11-20T08:24:32;16.00;;;8.88;;
42018;SDS011;27703;51.980;5.848;2022-11-20T08:26:58;15.60;;;9.05;;
42018;SDS011;27703;51.980;5.848;2022-11-20T08:29:24;13.18;;;8.48;;
42018;SDS011;27703;51.980;5.848;2022-11-20T08:31:51;12.63;;;7.72;;
42018;SDS011;27703;51.980;5.848;2022-11-20T08:34:17;16.88;;;9.77;;
42018;SDS011;27703;51.980;5.848;2022-11-20T08:36:42;18.48;;;10.35;;
42018;SDS011;27703;51.980;5.848;2022-11-20T08:39:11;14.73;;;9.00;;
42018;SDS011;27703;51.980;5.848;2022-11-20T08:41:37;16.83;;;9.50;;
42018;SDS011;27703;51.980;5.848;2022-11-20T08:44:03;14.27;;;9.15;;
42018;SDS011;27703;51.980;5.848;2022-11-20T08:46:41;12.80;;;8.40;;
42018;SDS011;27703;51.980;5.848;2022-11-20T08:49:09;12.10;;;8.07;;
42018;SDS011;27703;51.980;5.848;2022-11-20T08:51:36;16.13;;;8.68;;
42018;SDS011;27703;51.980;5.848;2022-11-20T08:54:02;17.25;;;11.18;;
42018;SDS011;27703;51.980;5.848;2022-11-20T08:56:29;14.35;;;8.45;;
42018;SDS011;27703;51.980;5.848;2022-11-20T08:58:55;16.75;;;9.73;;
42018;SDS011;27703;51.980;5.848;2022-11-20T09:01:21;20.27;;;10.60;;
42018;SDS011;27703;51.980;5.848;2022-11-20T09:03:48;19.83;;;10.60;;
42018;SDS011;27703;51.980;5.848;2022-11-20T09:06:13;18.38;;;10.27;;
42018;SDS011;27703;51.980;5.848;2022-11-20T09:08:39;16.27;;;10.15;;
42018;SDS011;27703;51.980;5.848;2022-11-20T09:11:05;13.30;;;8.63;;
42018;SDS011;27703;51.980;5.848;2022-11-20T09:13:32;17.02;;;10.13;;
42018;SDS011;27703;51.980;5.848;2022-11-20T09:16:05;17.45;;;9.50;;
42018;SDS011;27703;51.980;5.848;2022-11-20T09:18:32;14.05;;;9.00;;
42018;SDS011;27703;51.980;5.848;2022-11-20T09:21:01;15.55;;;9.57;;
42018;SDS011;27703;51.980;5.848;2022-11-20T09:23:33;14.75;;;9.07;;
42018;SDS011;27703;51.980;5.848;2022-11-20T09:26:07;14.95;;;9.98;;
42018;SDS011;27703;51.980;5.848;2022-11-20T09:28:36;17.13;;;10.10;;
42018;SDS011;27703;51.980;5.848;2022-11-20T09:31:08;23.67;;;13.88;;
42018;SDS011;27703;51.980;5.848;2022-11-20T09:33:44;17.00;;;9.98;;
42018;SDS011;27703;51.980;5.848;2022-11-20T09:36:10;18.73;;;10.07;;
42018;SDS011;27703;51.980;5.848;2022-11-20T09:38:35;15.82;;;9.57;;
42018;SDS011;27703;51.980;5.848;2022-11-20T09:41:04;16.58;;;10.32;;
42018;SDS011;27703;51.980;5.848;2022-11-20T09:48:42;18.42;;;11.60;;
42018;SDS011;27703;51.980;5.848;2022-11-20T09:56:21;15.07;;;9.52;;
42018;SDS011;27703;51.980;5.848;2022-11-20T09:58:49;19.00;;;9.93;;
42018;SDS011;27703;51.980;5.848;2022-11-20T10:01:23;16.05;;;10.10;;
42018;SDS011;27703;51.980;5.848;2022-11-20T10:04:09;14.67;;;8.47;;
42018;SDS011;27703;51.980;5.848;2022-11-20T10:06:43;12.45;;;8.02;;
42018;SDS011;27703;51.980;5.848;2022-11-20T10:09:34;16.40;;;10.40;;
42018;SDS011;27703;51.980;5.848;2022-11-20T10:17:26;15.00;;;9.30;;
42018;SDS011;27703;51.980;5.848;2022-11-20T10:22:53;16.80;;;9.40;;
42018;SDS011;27703;51.980;5.848;2022-11-20T10:25:44;17.35;;;8.88;;
42018;SDS011;27703;51.980;5.848;2022-11-20T10:28:28;15.25;;;9.45;;
42018;SDS011;27703;51.980;5.848;2022-11-20T10:31:03;20.63;;;9.70;;
42018;SDS011;27703;51.980;5.848;2022-11-20T10:33:35;15.90;;;9.40;;
42018;SDS011;27703;51.980;5.848;2022-11-20T10:36:09;15.35;;;8.20;;
42018;SDS011;27703;51.980;5.848;2022-11-20T10:38:45;17.77;;;9.55;;
42018;SDS011;27703;51.980;5.848;2022-11-20T10:41:20;15.50;;;9.88;;
42018;SDS011;27703;51.980;5.848;2022-11-20T10:44:14;16.38;;;8.55;;
42018;SDS011;27703;51.980;5.848;2022-11-20T10:47:01;16.17;;;9.68;;
42018;SDS011;27703;51.980;5.848;2022-11-20T10:49:28;13.98;;;8.25;;
42018;SDS011;27703;51.980;5.848;2022-11-20T10:52:01;20.05;;;9.32;;
42018;SDS011;27703;51.980;5.848;2022-11-20T10:54:42;15.45;;;9.13;;
42018;SDS011;27703;51.980;5.848;2022-11-20T10:57:20;13.77;;;8.05;;
42018;SDS011;27703;51.980;5.848;2022-11-20T11:00:12;21.38;;;11.10;;
42018;SDS011;27703;51.980;5.848;2022-11-20T11:05:12;19.17;;;10.90;;
42018;SDS011;27703;51.980;5.848;2022-11-20T11:07:58;19.17;;;10.57;;
42018;SDS011;27703;51.980;5.848;2022-11-20T11:10:26;20.23;;;10.40;;
42018;SDS011;27703;51.980;5.848;2022-11-20T11:18:26;13.40;;;8.02;;
42018;SDS011;27703;51.980;5.848;2022-11-20T11:20:54;13.68;;;8.18;;
42018;SDS011;27703;51.980;5.848;2022-11-20T11:23:34;15.30;;;8.52;;
42018;SDS011;27703;51.980;5.848;2022-11-20T11:26:17;18.00;;;9.63;;
42018;SDS011;27703;51.980;5.848;2022-11-20T11:28:58;13.13;;;8.25;;
42018;SDS011;27703;51.980;5.848;2022-11-20T11:31:26;17.70;;;10.10;;
42018;SDS011;27703;51.980;5.848;2022-11-20T11:37:01;16.40;;;10.35;;
42018;SDS011;27703;51.980;5.848;2022-11-20T11:39:28;27.05;;;14.32;;
42018;SDS011;27703;51.980;5.848;2022-11-20T11:41:55;16.40;;;9.43;;
42018;SDS011;27703;51.980;5.848;2022-11-20T11:44:24;15.25;;;8.90;;
42018;SDS011;27703;51.980;5.848;2022-11-20T11:56:02;18.17;;;10.30;;
42018;SDS011;27703;51.980;5.848;2022-11-20T12:04:00;15.38;;;10.10;;
42018;SDS011;27703;51.980;5.848;2022-11-20T12:06:27;14.82;;;9.82;;
42018;SDS011;27703;51.980;5.848;2022-11-20T12:08:58;20.05;;;10.52;;
42018;SDS011;27703;51.980;5.848;2022-11-20T12:11:36;16.95;;;10.93;;
42018;SDS011;27703;51.980;5.848;2022-11-20T12:16:44;14.75;;;8.25;;
42018;SDS011;27703;51.980;5.848;2022-11-20T12:19:11;14.93;;;9.70;;
42018;SDS011;27703;51.980;5.848;2022-11-20T12:30:18;19.35;;;11.75;;
42018;SDS011;27703;51.980;5.848;2022-11-20T12:32:52;21.52;;;11.95;;
42018;SDS011;27703;51.980;5.848;2022-11-20T12:38:11;18.23;;;12.23;;
42018;SDS011;27703;51.980;5.848;2022-11-20T12:47:27;21.55;;;14.00;;
42018;SDS011;27703;51.980;5.848;2022-11-20T12:59:09;18.15;;;12.13;;
42018;SDS011;27703;51.980;5.848;2022-11-20T13:05:52;19.95;;;13.15;;
42018;SDS011;27703;51.980;5.848;2022-11-20T13:07:56;19.00;;;12.55;;
42018;SDS011;27703;51.980;5.848;2022-11-20T13:12:54;23.77;;;14.75;;
42018;SDS011;27703;51.980;5.848;2022-11-20T13:15:47;22.15;;;13.38;;
42018;SDS011;27703;51.980;5.848;2022-11-20T13:18:23;25.15;;;14.75;;
42018;SDS011;27703;51.980;5.848;2022-11-20T13:20:49;18.63;;;12.18;;
42018;SDS011;27703;51.980;5.848;2022-11-20T13:23:25;21.27;;;13.65;;
42018;SDS011;27703;51.980;5.848;2022-11-20T13:26:05;25.20;;;15.90;;
42018;SDS011;27703;51.980;5.848;2022-11-20T13:28:40;23.83;;;15.07;;
42018;SDS011;27703;51.980;5.848;2022-11-20T13:31:09;21.20;;;14.55;;
42018;SDS011;27703;51.980;5.848;2022-11-20T13:33:49;24.40;;;15.80;;
42018;SDS011;27703;51.980;5.848;2022-11-20T13:36:23;23.52;;;15.68;;
42018;SDS011;27703;51.980;5.848;2022-11-20T13:38:51;25.88;;;16.15;;
42018;SDS011;27703;51.980;5.848;2022-11-20T13:44:04;25.08;;;14.98;;
42018;SDS011;27703;51.980;5.848;2022-11-20T13:46:38;26.40;;;16.23;;
42018;SDS011;27703;51.980;5.848;2022-11-20T13:49:08;25.25;;;15.13;;
42018;SDS011;27703;51.980;5.848;2022-11-20T13:51:42;25.15;;;14.93;;
42018;SDS011;27703;51.980;5.848;2022-11-20T13:59:49;41.60;;;26.48;;
42018;SDS011;27703;51.980;5.848;2022-11-20T14:02:23;38.10;;;22.20;;
42018;SDS011;27703;51.980;5.848;2022-11-20T14:04:52;31.65;;;19.15;;
42018;SDS011;27703;51.980;5.848;2022-11-20T14:07:21;31.25;;;18.70;;
42018;SDS011;27703;51.980;5.848;2022-11-20T14:09:51;32.95;;;18.88;;
42018;SDS011;27703;51.980;5.848;2022-11-20T14:12:19;29.13;;;17.38;;
42018;SDS011;27703;51.980;5.848;2022-11-20T14:14:48;30.00;;;17.77;;
42018;SDS011;27703;51.980;5.848;2022-11-20T14:17:20;37.72;;;21.63;;
42018;SDS011;27703;51.980;5.848;2022-11-20T14:19:48;35.70;;;20.02;;
42018;SDS011;27703;51.980;5.848;2022-11-20T14:22:17;36.72;;;20.15;;
42018;SDS011;27703;51.980;5.848;2022-11-20T14:24:47;34.22;;;20.83;;
42018;SDS011;27703;51.980;5.848;2022-11-20T14:27:36;35.38;;;21.38;;
42018;SDS011;27703;51.980;5.848;2022-11-20T14:30:03;33.40;;;21.00;;
42018;SDS011;27703;51.980;5.848;2022-11-20T14:32:30;34.10;;;19.73;;
42018;SDS011;27703;51.980;5.848;2022-11-20T14:35:01;37.97;;;20.98;;
42018;SDS011;27703;51.980;5.848;2022-11-20T14:37:33;36.42;;;21.17;;
42018;SDS011;27703;51.980;5.848;2022-11-20T14:40:01;35.75;;;20.85;;
42018;SDS011;27703;51.980;5.848;2022-11-20T14:42:28;31.17;;;19.80;;
42018;SDS011;27703;51.980;5.848;2022-11-20T14:44:56;35.72;;;20.23;;
42018;SDS011;27703;51.980;5.848;2022-11-20T14:47:24;34.90;;;19.63;;
42018;SDS011;27703;51.980;5.848;2022-11-20T14:49:52;31.60;;;17.65;;
42018;SDS011;27703;51.980;5.848;2022-11-20T14:52:23;37.33;;;20.48;;
42018;SDS011;27703;51.980;5.848;2022-11-20T14:54:50;33.87;;;19.93;;
42018;SDS011;27703;51.980;5.848;2022-11-20T14:57:22;32.88;;;19.15;;
42018;SDS011;27703;51.980;5.848;2022-11-20T15:02:31;38.40;;;20.40;;
42018;SDS011;27703;51.980;5.848;2022-11-20T15:04:57;34.75;;;19.55;;
42018;SDS011;27703;51.980;5.848;2022-11-20T15:07:25;28.67;;;18.05;;
42018;SDS011;27703;51.980;5.848;2022-11-20T15:10:05;33.40;;;20.30;;
42018;SDS011;27703;51.980;5.848;2022-11-20T15:12:46;34.05;;;20.60;;
42018;SDS011;27703;51.980;5.848;2022-11-20T15:15:12;34.20;;;17.83;;
42018;SDS011;27703;51.980;5.848;2022-11-20T15:17:42;33.22;;;18.17;;
42018;SDS011;27703;51.980;5.848;2022-11-20T15:20:12;33.90;;;19.85;;
42018;SDS011;27703;51.980;5.848;2022-11-20T15:22:39;27.65;;;17.05;;
42018;SDS011;27703;51.980;5.848;2022-11-20T15:25:11;31.92;;;18.88;;
42018;SDS011;27703;51.980;5.848;2022-11-20T15:27:41;31.42;;;17.90;;
42018;SDS011;27703;51.980;5.848;2022-11-20T15:30:14;37.22;;;20.40;;
42018;SDS011;27703;51.980;5.848;2022-11-20T15:32:41;40.47;;;21.73;;
42018;SDS011;27703;51.980;5.848;2022-11-20T15:35:08;37.63;;;20.38;;
42018;SDS011;27703;51.980;5.848;2022-11-20T15:37:34;32.13;;;17.55;;
42018;SDS011;27703;51.980;5.848;2022-11-20T15:40:00;33.63;;;18.63;;
42018;SDS011;27703;51.980;5.848;2022-11-20T15:42:26;32.53;;;19.25;;
42018;SDS011;27703;51.980;5.848;2022-11-20T15:44:54;32.88;;;19.98;;
42018;SDS011;27703;51.980;5.848;2022-11-20T15:47:21;32.03;;;17.23;;
42018;SDS011;27703;51.980;5.848;2022-11-20T15:49:54;35.70;;;20.13;;
42018;SDS011;27703;51.980;5.848;2022-11-20T15:52:20;33.97;;;19.00;;
42018;SDS011;27703;51.980;5.848;2022-11-20T15:54:46;32.75;;;18.42;;
42018;SDS011;27703;51.980;5.848;2022-11-20T15:57:11;33.20;;;19.90;;
42018;SDS011;27703;51.980;5.848;2022-11-20T15:59:37;34.92;;;19.83;;
42018;SDS011;27703;51.980;5.848;2022-11-20T16:02:10;31.10;;;19.52;;
42018;SDS011;27703;51.980;5.848;2022-11-20T16:04:36;34.03;;;19.00;;
42018;SDS011;27703;51.980;5.848;2022-11-20T16:07:02;35.53;;;21.08;;
42018;SDS011;27703;51.980;5.848;2022-11-20T16:09:27;38.90;;;21.38;;
42018;SDS011;27703;51.980;5.848;2022-11-20T16:11:53;35.30;;;20.70;;
42018;SDS011;27703;51.980;5.848;2022-11-20T16:14:18;31.08;;;19.60;;
42018;SDS011;27703;51.980;5.848;2022-11-20T16:17:03;34.45;;;20.85;;
42018;SDS011;27703;51.980;5.848;2022-11-20T16:19:28;33.13;;;18.60;;